Terminal Aerodrome Forecast
Issued by NWS

Home | Current Version | Previous Version | Text Only | Print | Product List | Glossary Off
Versions: 1 2 3 4 5 6 7 8 9 10 11 12 13 14 15 16 17 18 19

000
FTUS43 KIWX 241700
TAFSBN
TAF
KSBN 241730Z 2418/2518 23025G40KT 4SM -RASN BR FEW009 OVC014
     FM241900 24022G35KT 1 1/2SM -SHSN BR OVC010
     FM242000 25020G30KT 2SM -SN OVC010
     FM242200 26013G21KT 6SM -SN OVC020
     FM250100 25012KT P6SM OVC030=

USA.gov is the U.S. government's official web portal to all federal, state and local government web resources and services.